sensor_id;sensor_type;location;lat;lon;timestamp;temperature;humidity
22471;DHT22;11402;51.374;6.594;2024-01-06T00:00:26;8.10;99.90
22471;DHT22;11402;51.374;6.594;2024-01-06T00:02:52;8.00;99.90
22471;DHT22;11402;51.374;6.594;2024-01-06T00:05:17;8.00;99.90
22471;DHT22;11402;51.374;6.594;2024-01-06T00:07:43;8.00;99.90
22471;DHT22;11402;51.374;6.594;2024-01-06T00:10:09;8.00;99.90
22471;DHT22;11402;51.374;6.594;2024-01-06T00:12:34;8.00;99.90
22471;DHT22;11402;51.374;6.594;2024-01-06T00:15:00;8.00;99.90
22471;DHT22;11402;51.374;6.594;2024-01-06T00:17:26;8.10;99.90
22471;DHT22;11402;51.374;6.594;2024-01-06T00:19:51;8.00;99.90
22471;DHT22;11402;51.374;6.594;2024-01-06T00:22:18;8.10;99.90
22471;DHT22;11402;51.374;6.594;2024-01-06T00:24:43;8.20;99.90
22471;DHT22;11402;51.374;6.594;2024-01-06T00:27:09;8.10;99.90
22471;DHT22;11402;51.374;6.594;2024-01-06T00:29:35;8.10;99.90
22471;DHT22;11402;51.374;6.594;2024-01-06T00:32:00;8.20;99.90
22471;DHT22;11402;51.374;6.594;2024-01-06T00:34:26;8.30;99.90
22471;DHT22;11402;51.374;6.594;2024-01-06T00:36:52;8.40;99.90
22471;DHT22;11402;51.374;6.594;2024-01-06T00:39:19;8.40;94.00
22471;DHT22;11402;51.374;6.594;2024-01-06T00:41:45;8.40;99.90
22471;DHT22;11402;51.374;6.594;2024-01-06T00:44:11;8.40;99.90
22471;DHT22;11402;51.374;6.594;2024-01-06T00:46:37;8.30;99.90
22471;DHT22;11402;51.374;6.594;2024-01-06T00:49:03;8.30;99.90
22471;DHT22;11402;51.374;6.594;2024-01-06T00:51:29;8.20;99.90
22471;DHT22;11402;51.374;6.594;2024-01-06T00:53:54;8.20;99.90
22471;DHT22;11402;51.374;6.594;2024-01-06T00:56:20;8.30;99.90
22471;DHT22;11402;51.374;6.594;2024-01-06T00:58:46;8.30;99.90
22471;DHT22;11402;51.374;6.594;2024-01-06T01:01:11;8.30;99.90
22471;DHT22;11402;51.374;6.594;2024-01-06T01:03:37;8.30;99.90
22471;DHT22;11402;51.374;6.594;2024-01-06T01:06:02;8.30;99.90
22471;DHT22;11402;51.374;6.594;2024-01-06T01:08:28;8.20;99.90
22471;DHT22;11402;51.374;6.594;2024-01-06T01:10:54;8.20;99.90
22471;DHT22;11402;51.374;6.594;2024-01-06T01:13:19;8.10;99.90
22471;DHT22;11402;51.374;6.594;2024-01-06T01:15:45;8.30;99.90
22471;DHT22;11402;51.374;6.594;2024-01-06T01:18:10;8.20;99.90
22471;DHT22;11402;51.374;6.594;2024-01-06T01:20:36;8.20;99.90
22471;DHT22;11402;51.374;6.594;2024-01-06T01:23:01;8.20;99.90
22471;DHT22;11402;51.374;6.594;2024-01-06T01:25:27;8.20;99.90
22471;DHT22;11402;51.374;6.594;2024-01-06T01:27:53;8.20;99.90
22471;DHT22;11402;51.374;6.594;2024-01-06T01:30:18;8.20;99.90
22471;DHT22;11402;51.374;6.594;2024-01-06T01:32:44;8.10;99.90
22471;DHT22;11402;51.374;6.594;2024-01-06T01:35:09;8.00;99.90
22471;DHT22;11402;51.374;6.594;2024-01-06T01:37:35;7.90;99.90
22471;DHT22;11402;51.374;6.594;2024-01-06T01:40:01;7.60;99.90
22471;DHT22;11402;51.374;6.594;2024-01-06T01:42:26;7.70;99.90
22471;DHT22;11402;51.374;6.594;2024-01-06T01:44:52;7.60;99.90
22471;DHT22;11402;51.374;6.594;2024-01-06T01:47:18;7.60;99.90
22471;DHT22;11402;51.374;6.594;2024-01-06T01:49:45;7.60;99.90
22471;DHT22;11402;51.374;6.594;2024-01-06T01:52:13;7.60;99.90
22471;DHT22;11402;51.374;6.594;2024-01-06T01:54:39;7.60;99.90
22471;DHT22;11402;51.374;6.594;2024-01-06T01:57:06;7.60;99.90
22471;DHT22;11402;51.374;6.594;2024-01-06T01:59:31;7.70;99.90
22471;DHT22;11402;51.374;6.594;2024-01-06T02:01:58;7.90;99.90
22471;DHT22;11402;51.374;6.594;2024-01-06T02:04:23;7.70;99.90
22471;DHT22;11402;51.374;6.594;2024-01-06T02:06:49;7.80;99.90
22471;DHT22;11402;51.374;6.594;2024-01-06T02:09:15;7.60;99.90
22471;DHT22;11402;51.374;6.594;2024-01-06T02:11:41;7.50;99.90
22471;DHT22;11402;51.374;6.594;2024-01-06T02:14:06;7.50;99.90
22471;DHT22;11402;51.374;6.594;2024-01-06T02:16:32;7.50;99.90
22471;DHT22;11402;51.374;6.594;2024-01-06T02:18:57;7.50;99.90
22471;DHT22;11402;51.374;6.594;2024-01-06T02:21:23;7.60;99.90
22471;DHT22;11402;51.374;6.594;2024-01-06T02:23:49;7.40;99.90
22471;DHT22;11402;51.374;6.594;2024-01-06T02:26:15;7.60;99.90
22471;DHT22;11402;51.374;6.594;2024-01-06T02:28:41;7.60;99.90
22471;DHT22;11402;51.374;6.594;2024-01-06T02:31:06;7.80;99.90
22471;DHT22;11402;51.374;6.594;2024-01-06T02:33:32;7.70;99.90
22471;DHT22;11402;51.374;6.594;2024-01-06T02:35:58;7.60;99.90
22471;DHT22;11402;51.374;6.594;2024-01-06T02:38:23;7.50;99.90
22471;DHT22;11402;51.374;6.594;2024-01-06T02:40:49;7.60;99.90
22471;DHT22;11402;51.374;6.594;2024-01-06T02:43:14;7.70;99.90
22471;DHT22;11402;51.374;6.594;2024-01-06T02:45:40;7.60;99.90
22471;DHT22;11402;51.374;6.594;2024-01-06T02:48:05;7.50;99.90
22471;DHT22;11402;51.374;6.594;2024-01-06T02:50:31;7.50;99.90
22471;DHT22;11402;51.374;6.594;2024-01-06T02:52:56;7.40;99.90
22471;DHT22;11402;51.374;6.594;2024-01-06T02:55:22;7.40;99.90
22471;DHT22;11402;51.374;6.594;2024-01-06T02:57:47;7.30;99.90
22471;DHT22;11402;51.374;6.594;2024-01-06T03:00:13;7.30;99.90
22471;DHT22;11402;51.374;6.594;2024-01-06T04:23:02;6.00;99.90
22471;DHT22;11402;51.374;6.594;2024-01-06T04:25:27;6.00;99.90
22471;DHT22;11402;51.374;6.594;2024-01-06T04:27:53;6.00;99.90
22471;DHT22;11402;51.374;6.594;2024-01-06T04:30:18;5.90;99.90
22471;DHT22;11402;51.374;6.594;2024-01-06T04:32:45;5.90;99.90
22471;DHT22;11402;51.374;6.594;2024-01-06T04:35:14;5.90;99.90
22471;DHT22;11402;51.374;6.594;2024-01-06T04:37:39;5.90;99.90
22471;DHT22;11402;51.374;6.594;2024-01-06T04:40:05;5.70;99.90
22471;DHT22;11402;51.374;6.594;2024-01-06T04:42:31;5.60;99.90
22471;DHT22;11402;51.374;6.594;2024-01-06T04:44:56;5.90;99.90
22471;DHT22;11402;51.374;6.594;2024-01-06T04:47:22;5.80;99.90
22471;DHT22;11402;51.374;6.594;2024-01-06T04:49:47;5.40;99.90
22471;DHT22;11402;51.374;6.594;2024-01-06T04:52:13;5.60;99.90
22471;DHT22;11402;51.374;6.594;2024-01-06T04:54:38;5.70;99.90
22471;DHT22;11402;51.374;6.594;2024-01-06T04:57:04;5.80;99.90
22471;DHT22;11402;51.374;6.594;2024-01-06T04:59:30;5.90;99.90
22471;DHT22;11402;51.374;6.594;2024-01-06T05:01:57;5.80;99.90
22471;DHT22;11402;51.374;6.594;2024-01-06T05:04:23;5.80;99.90
22471;DHT22;11402;51.374;6.594;2024-01-06T05:06:49;5.70;99.90
22471;DHT22;11402;51.374;6.594;2024-01-06T05:09:15;5.70;99.90
22471;DHT22;11402;51.374;6.594;2024-01-06T05:11:43;5.80;99.90
22471;DHT22;11402;51.374;6.594;2024-01-06T05:14:09;5.80;99.90
22471;DHT22;11402;51.374;6.594;2024-01-06T05:16:34;5.90;99.90
22471;DHT22;11402;51.374;6.594;2024-01-06T05:19:00;5.70;99.90
22471;DHT22;11402;51.374;6.594;2024-01-06T05:21:25;5.70;99.90
22471;DHT22;11402;51.374;6.594;2024-01-06T05:23:51;5.70;99.90
22471;DHT22;11402;51.374;6.594;2024-01-06T05:26:16;5.70;99.90
22471;DHT22;11402;51.374;6.594;2024-01-06T05:28:42;5.60;99.90
22471;DHT22;11402;51.374;6.594;2024-01-06T05:31:08;5.70;99.90
22471;DHT22;11402;51.374;6.594;2024-01-06T05:33:33;5.50;99.90
22471;DHT22;11402;51.374;6.594;2024-01-06T05:35:59;5.40;99.90
22471;DHT22;11402;51.374;6.594;2024-01-06T05:38:25;5.40;99.90
22471;DHT22;11402;51.374;6.594;2024-01-06T05:40:50;5.40;99.90
22471;DHT22;11402;51.374;6.594;2024-01-06T05:43:16;5.40;99.90
22471;DHT22;11402;51.374;6.594;2024-01-06T05:45:41;5.50;99.90
22471;DHT22;11402;51.374;6.594;2024-01-06T05:48:10;5.40;99.90
22471;DHT22;11402;51.374;6.594;2024-01-06T05:50:38;5.40;99.90
22471;DHT22;11402;51.374;6.594;2024-01-06T05:53:05;5.60;99.90
22471;DHT22;11402;51.374;6.594;2024-01-06T05:55:31;5.60;99.90
22471;DHT22;11402;51.374;6.594;2024-01-06T05:57:56;5.60;99.90
22471;DHT22;11402;51.374;6.594;2024-01-06T06:00:22;5.50;99.90
22471;DHT22;11402;51.374;6.594;2024-01-06T06:02:48;5.50;99.90
22471;DHT22;11402;51.374;6.594;2024-01-06T06:05:14;5.60;99.90
22471;DHT22;11402;51.374;6.594;2024-01-06T06:07:39;5.70;99.90
22471;DHT22;11402;51.374;6.594;2024-01-06T06:10:09;5.90;99.90
22471;DHT22;11402;51.374;6.594;2024-01-06T06:12:35;5.70;99.90
22471;DHT22;11402;51.374;6.594;2024-01-06T06:15:02;5.80;99.90
22471;DHT22;11402;51.374;6.594;2024-01-06T06:17:29;5.90;99.90
22471;DHT22;11402;51.374;6.594;2024-01-06T06:19:55;5.90;99.90
22471;DHT22;11402;51.374;6.594;2024-01-06T06:22:22;5.80;99.90
22471;DHT22;11402;51.374;6.594;2024-01-06T06:24:47;5.70;99.90
22471;DHT22;11402;51.374;6.594;2024-01-06T06:27:13;5.60;99.90
22471;DHT22;11402;51.374;6.594;2024-01-06T06:29:38;5.60;99.90
22471;DHT22;11402;51.374;6.594;2024-01-06T06:32:04;5.70;99.90
22471;DHT22;11402;51.374;6.594;2024-01-06T06:34:30;5.70;99.90
22471;DHT22;11402;51.374;6.594;2024-01-06T06:36:55;5.60;99.90
22471;DHT22;11402;51.374;6.594;2024-01-06T06:39:21;5.50;99.90
22471;DHT22;11402;51.374;6.594;2024-01-06T06:41:46;5.60;99.90
22471;DHT22;11402;51.374;6.594;2024-01-06T06:44:12;5.60;99.90
22471;DHT22;11402;51.374;6.594;2024-01-06T06:46:37;5.30;99.90
22471;DHT22;11402;51.374;6.594;2024-01-06T06:49:03;5.30;99.90
22471;DHT22;11402;51.374;6.594;2024-01-06T06:51:28;5.20;99.90
22471;DHT22;11402;51.374;6.594;2024-01-06T06:53:55;5.20;99.90
22471;DHT22;11402;51.374;6.594;2024-01-06T06:56:22;5.30;99.90
22471;DHT22;11402;51.374;6.594;2024-01-06T06:58:48;5.30;99.90
22471;DHT22;11402;51.374;6.594;2024-01-06T07:01:14;5.20;99.90
22471;DHT22;11402;51.374;6.594;2024-01-06T07:03:41;5.20;99.90
22471;DHT22;11402;51.374;6.594;2024-01-06T07:06:06;5.30;99.90
22471;DHT22;11402;51.374;6.594;2024-01-06T07:08:32;5.10;99.90
22471;DHT22;11402;51.374;6.594;2024-01-06T07:10:57;5.20;99.90
22471;DHT22;11402;51.374;6.594;2024-01-06T07:13:23;5.40;99.90
22471;DHT22;11402;51.374;6.594;2024-01-06T07:15:48;5.40;99.90
22471;DHT22;11402;51.374;6.594;2024-01-06T07:18:14;5.30;99.90
22471;DHT22;11402;51.374;6.594;2024-01-06T07:20:39;5.30;99.90
22471;DHT22;11402;51.374;6.594;2024-01-06T07:23:05;5.30;99.90
22471;DHT22;11402;51.374;6.594;2024-01-06T07:25:30;5.40;99.90
22471;DHT22;11402;51.374;6.594;2024-01-06T07:27:56;5.40;99.90
22471;DHT22;11402;51.374;6.594;2024-01-06T07:30:22;5.30;99.90
22471;DHT22;11402;51.374;6.594;2024-01-06T07:32:47;5.20;99.90
22471;DHT22;11402;51.374;6.594;2024-01-06T07:35:15;5.40;99.90
22471;DHT22;11402;51.374;6.594;2024-01-06T07:37:41;5.30;99.90
22471;DHT22;11402;51.374;6.594;2024-01-06T07:40:07;5.10;99.90
22471;DHT22;11402;51.374;6.594;2024-01-06T07:42:33;5.10;99.90
22471;DHT22;11402;51.374;6.594;2024-01-06T07:44:58;5.10;99.90
22471;DHT22;11402;51.374;6.594;2024-01-06T07:47:24;5.20;99.90
22471;DHT22;11402;51.374;6.594;2024-01-06T07:49:50;5.00;99.90
22471;DHT22;11402;51.374;6.594;2024-01-06T07:52:16;4.90;99.90
22471;DHT22;11402;51.374;6.594;2024-01-06T07:54:42;4.80;99.90
22471;DHT22;11402;51.374;6.594;2024-01-06T07:57:07;4.80;99.90
22471;DHT22;11402;51.374;6.594;2024-01-06T07:59:33;4.80;99.90
22471;DHT22;11402;51.374;6.594;2024-01-06T08:01:58;4.70;99.90
22471;DHT22;11402;51.374;6.594;2024-01-06T08:04:24;4.80;99.90
22471;DHT22;11402;51.374;6.594;2024-01-06T08:06:50;4.80;99.90
22471;DHT22;11402;51.374;6.594;2024-01-06T08:09:15;4.80;99.90
22471;DHT22;11402;51.374;6.594;2024-01-06T08:11:41;4.80;99.90
22471;DHT22;11402;51.374;6.594;2024-01-06T08:14:08;4.80;99.90
22471;DHT22;11402;51.374;6.594;2024-01-06T08:16:33;4.80;99.90
22471;DHT22;11402;51.374;6.594;2024-01-06T08:18:59;4.70;99.90
22471;DHT22;11402;51.374;6.594;2024-01-06T08:21:25;4.80;99.90
22471;DHT22;11402;51.374;6.594;2024-01-06T08:23:51;4.70;99.90
22471;DHT22;11402;51.374;6.594;2024-01-06T08:26:16;4.70;99.90
22471;DHT22;11402;51.374;6.594;2024-01-06T08:28:42;4.60;99.90
22471;DHT22;11402;51.374;6.594;2024-01-06T08:31:07;4.50;99.90
22471;DHT22;11402;51.374;6.594;2024-01-06T08:33:33;4.50;99.90
22471;DHT22;11402;51.374;6.594;2024-01-06T08:35:58;4.50;99.90
22471;DHT22;11402;51.374;6.594;2024-01-06T08:38:24;4.50;99.90
22471;DHT22;11402;51.374;6.594;2024-01-06T08:40:50;4.40;99.90
22471;DHT22;11402;51.374;6.594;2024-01-06T08:43:17;4.50;99.90
22471;DHT22;11402;51.374;6.594;2024-01-06T08:45:43;4.50;99.90
22471;DHT22;11402;51.374;6.594;2024-01-06T08:48:08;4.40;99.90
22471;DHT22;11402;51.374;6.594;2024-01-06T08:50:34;4.50;99.90
22471;DHT22;11402;51.374;6.594;2024-01-06T08:52:59;4.30;99.90
22471;DHT22;11402;51.374;6.594;2024-01-06T08:55:25;4.50;99.90
22471;DHT22;11402;51.374;6.594;2024-01-06T08:57:51;4.40;99.90
22471;DHT22;11402;51.374;6.594;2024-01-06T09:00:16;4.40;99.90
22471;DHT22;11402;51.374;6.594;2024-01-06T09:02:42;4.40;99.90
22471;DHT22;11402;51.374;6.594;2024-01-06T09:05:08;4.20;99.90
22471;DHT22;11402;51.374;6.594;2024-01-06T09:07:34;4.30;99.90
22471;DHT22;11402;51.374;6.594;2024-01-06T09:09:59;4.30;99.90
22471;DHT22;11402;51.374;6.594;2024-01-06T09:12:25;4.10;99.90
22471;DHT22;11402;51.374;6.594;2024-01-06T09:14:50;4.10;99.90
22471;DHT22;11402;51.374;6.594;2024-01-06T09:17:16;4.10;99.90
22471;DHT22;11402;51.374;6.594;2024-01-06T09:19:42;4.20;99.90
22471;DHT22;11402;51.374;6.594;2024-01-06T09:22:07;4.20;99.90
22471;DHT22;11402;51.374;6.594;2024-01-06T09:24:33;4.20;99.90
22471;DHT22;11402;51.374;6.594;2024-01-06T09:26:59;4.20;99.90
22471;DHT22;11402;51.374;6.594;2024-01-06T09:29:24;4.20;99.90
22471;DHT22;11402;51.374;6.594;2024-01-06T09:31:50;4.20;99.90
22471;DHT22;11402;51.374;6.594;2024-01-06T09:34:16;4.20;99.90
22471;DHT22;11402;51.374;6.594;2024-01-06T09:36:41;4.10;99.90
22471;DHT22;11402;51.374;6.594;2024-01-06T09:39:07;4.20;99.90
22471;DHT22;11402;51.374;6.594;2024-01-06T09:41:33;4.20;99.90
22471;DHT22;11402;51.374;6.594;2024-01-06T09:43:59;4.30;99.90
22471;DHT22;11402;51.374;6.594;2024-01-06T09:46:26;4.20;99.90
22471;DHT22;11402;51.374;6.594;2024-01-06T09:48:53;4.30;99.90
22471;DHT22;11402;51.374;6.594;2024-01-06T09:51:20;4.20;99.90
22471;DHT22;11402;51.374;6.594;2024-01-06T09:53:56;4.20;99.90
22471;DHT22;11402;51.374;6.594;2024-01-06T09:56:24;4.20;99.90
22471;DHT22;11402;51.374;6.594;2024-01-06T09:58:50;4.40;99.90
22471;DHT22;11402;51.374;6.594;2024-01-06T10:01:17;4.20;99.90
22471;DHT22;11402;51.374;6.594;2024-01-06T10:03:43;4.00;99.90
22471;DHT22;11402;51.374;6.594;2024-01-06T10:06:11;4.00;99.90
22471;DHT22;11402;51.374;6.594;2024-01-06T10:08:37;4.10;99.90
22471;DHT22;11402;51.374;6.594;2024-01-06T10:11:06;4.10;99.90
22471;DHT22;11402;51.374;6.594;2024-01-06T10:13:37;4.10;99.90
22471;DHT22;11402;51.374;6.594;2024-01-06T10:16:07;4.10;99.90
22471;DHT22;11402;51.374;6.594;2024-01-06T10:18:33;4.20;99.90
22471;DHT22;11402;51.374;6.594;2024-01-06T10:21:03;4.10;99.90
22471;DHT22;11402;51.374;6.594;2024-01-06T10:23:31;4.10;99.90
22471;DHT22;11402;51.374;6.594;2024-01-06T10:25:57;4.00;99.90
22471;DHT22;11402;51.374;6.594;2024-01-06T10:28:23;4.10;99.90
22471;DHT22;11402;51.374;6.594;2024-01-06T10:30:52;4.30;99.90
22471;DHT22;11402;51.374;6.594;2024-01-06T10:33:19;4.10;99.90
22471;DHT22;11402;51.374;6.594;2024-01-06T10:35:46;4.10;99.90
22471;DHT22;11402;51.374;6.594;2024-01-06T10:38:13;4.00;99.90
22471;DHT22;11402;51.374;6.594;2024-01-06T10:40:40;3.90;99.90
22471;DHT22;11402;51.374;6.594;2024-01-06T10:43:22;4.00;99.90
22471;DHT22;11402;51.374;6.594;2024-01-06T10:45:49;4.00;99.90
22471;DHT22;11402;51.374;6.594;2024-01-06T10:48:15;4.00;99.90
22471;DHT22;11402;51.374;6.594;2024-01-06T10:50:42;4.10;99.90
22471;DHT22;11402;51.374;6.594;2024-01-06T10:53:09;4.10;99.90
22471;DHT22;11402;51.374;6.594;2024-01-06T10:55:37;4.20;99.90
22471;DHT22;11402;51.374;6.594;2024-01-06T10:58:04;4.40;99.90
22471;DHT22;11402;51.374;6.594;2024-01-06T11:00:31;4.30;99.90
22471;DHT22;11402;51.374;6.594;2024-01-06T11:02:57;4.10;99.90
22471;DHT22;11402;51.374;6.594;2024-01-06T11:05:25;3.90;99.90
22471;DHT22;11402;51.374;6.594;2024-01-06T11:07:52;3.80;99.90
22471;DHT22;11402;51.374;6.594;2024-01-06T11:10:21;4.00;99.90
22471;DHT22;11402;51.374;6.594;2024-01-06T11:13:13;3.90;99.90
22471;DHT22;11402;51.374;6.594;2024-01-06T11:18:06;3.70;99.90
22471;DHT22;11402;51.374;6.594;2024-01-06T11:20:31;3.80;99.90
22471;DHT22;11402;51.374;6.594;2024-01-06T11:23:17;3.70;99.90
22471;DHT22;11402;51.374;6.594;2024-01-06T11:25:44;3.70;99.90
22471;DHT22;11402;51.374;6.594;2024-01-06T11:28:10;3.90;99.90
22471;DHT22;11402;51.374;6.594;2024-01-06T11:30:38;3.90;99.90
22471;DHT22;11402;51.374;6.594;2024-01-06T11:33:04;3.80;99.90
22471;DHT22;11402;51.374;6.594;2024-01-06T11:35:30;3.70;99.90
22471;DHT22;11402;51.374;6.594;2024-01-06T11:38:00;3.80;99.90
22471;DHT22;11402;51.374;6.594;2024-01-06T11:40:32;3.60;99.90
22471;DHT22;11402;51.374;6.594;2024-01-06T11:43:06;3.80;99.90
22471;DHT22;11402;51.374;6.594;2024-01-06T11:45:32;3.70;99.90
22471;DHT22;11402;51.374;6.594;2024-01-06T11:48:00;3.80;99.90
22471;DHT22;11402;51.374;6.594;2024-01-06T11:50:27;3.90;99.90
22471;DHT22;11402;51.374;6.594;2024-01-06T11:52:54;3.70;99.90
22471;DHT22;11402;51.374;6.594;2024-01-06T11:55:20;3.80;99.90
22471;DHT22;11402;51.374;6.594;2024-01-06T11:57:46;3.70;99.90
22471;DHT22;11402;51.374;6.594;2024-01-06T12:00:16;3.80;99.90
22471;DHT22;11402;51.374;6.594;2024-01-06T12:02:42;3.70;99.90
22471;DHT22;11402;51.374;6.594;2024-01-06T12:05:17;3.80;99.90
22471;DHT22;11402;51.374;6.594;2024-01-06T12:07:57;3.80;99.90
22471;DHT22;11402;51.374;6.594;2024-01-06T12:10:23;3.60;99.90
22471;DHT22;11402;51.374;6.594;2024-01-06T12:15:29;3.70;99.90
22471;DHT22;11402;51.374;6.594;2024-01-06T12:17:55;3.70;99.90
22471;DHT22;11402;51.374;6.594;2024-01-06T12:20:22;3.60;99.90
22471;DHT22;11402;51.374;6.594;2024-01-06T12:22:50;3.60;99.90
22471;DHT22;11402;51.374;6.594;2024-01-06T12:25:16;3.60;99.90
22471;DHT22;11402;51.374;6.594;2024-01-06T12:27:43;3.60;99.90
22471;DHT22;11402;51.374;6.594;2024-01-06T12:30:14;3.50;99.90
22471;DHT22;11402;51.374;6.594;2024-01-06T12:32:45;3.60;99.90
22471;DHT22;11402;51.374;6.594;2024-01-06T12:35:11;3.60;99.90
22471;DHT22;11402;51.374;6.594;2024-01-06T12:37:38;3.50;99.90
22471;DHT22;11402;51.374;6.594;2024-01-06T12:40:04;3.50;99.90
22471;DHT22;11402;51.374;6.594;2024-01-06T12:42:30;3.60;99.90
22471;DHT22;11402;51.374;6.594;2024-01-06T12:44:55;3.60;99.90
22471;DHT22;11402;51.374;6.594;2024-01-06T12:47:21;3.60;99.90
22471;DHT22;11402;51.374;6.594;2024-01-06T12:49:47;3.50;99.90
22471;DHT22;11402;51.374;6.594;2024-01-06T12:52:12;3.40;99.90
22471;DHT22;11402;51.374;6.594;2024-01-06T12:54:39;3.40;99.90
22471;DHT22;11402;51.374;6.594;2024-01-06T12:57:05;3.30;99.90
22471;DHT22;11402;51.374;6.594;2024-01-06T12:59:30;3.30;99.90
22471;DHT22;11402;51.374;6.594;2024-01-06T13:01:56;3.40;99.90
22471;DHT22;11402;51.374;6.594;2024-01-06T13:04:22;3.20;99.90
22471;DHT22;11402;51.374;6.594;2024-01-06T13:06:48;3.40;99.90
22471;DHT22;11402;51.374;6.594;2024-01-06T13:09:14;3.40;99.90
22471;DHT22;11402;51.374;6.594;2024-01-06T13:11:42;3.40;99.90
22471;DHT22;11402;51.374;6.594;2024-01-06T13:14:08;3.30;99.90
22471;DHT22;11402;51.374;6.594;2024-01-06T13:16:33;3.20;99.90
22471;DHT22;11402;51.374;6.594;2024-01-06T13:19:00;3.30;99.90
22471;DHT22;11402;51.374;6.594;2024-01-06T13:21:26;3.10;99.90
22471;DHT22;11402;51.374;6.594;2024-01-06T13:23:53;3.20;99.90
22471;DHT22;11402;51.374;6.594;2024-01-06T13:26:19;3.20;99.90
22471;DHT22;11402;51.374;6.594;2024-01-06T13:28:44;3.30;99.90
22471;DHT22;11402;51.374;6.594;2024-01-06T13:31:11;3.30;99.90
22471;DHT22;11402;51.374;6.594;2024-01-06T13:33:37;3.30;99.90
22471;DHT22;11402;51.374;6.594;2024-01-06T13:36:02;3.30;99.90
22471;DHT22;11402;51.374;6.594;2024-01-06T13:38:29;3.20;99.90
22471;DHT22;11402;51.374;6.594;2024-01-06T13:40:55;3.10;99.90
22471;DHT22;11402;51.374;6.594;2024-01-06T13:43:20;3.10;99.90
22471;DHT22;11402;51.374;6.594;2024-01-06T13:45:46;3.10;99.90
22471;DHT22;11402;51.374;6.594;2024-01-06T13:48:12;3.00;99.90
22471;DHT22;11402;51.374;6.594;2024-01-06T13:50:38;3.00;99.90
22471;DHT22;11402;51.374;6.594;2024-01-06T13:53:05;3.00;99.90
22471;DHT22;11402;51.374;6.594;2024-01-06T13:55:32;2.90;99.90
22471;DHT22;11402;51.374;6.594;2024-01-06T13:57:59;3.00;99.90
22471;DHT22;11402;51.374;6.594;2024-01-06T14:00:24;3.10;99.90
22471;DHT22;11402;51.374;6.594;2024-01-06T14:02:51;3.10;99.90
22471;DHT22;11402;51.374;6.594;2024-01-06T14:05:17;3.20;99.90
22471;DHT22;11402;51.374;6.594;2024-01-06T14:07:45;2.90;99.90
22471;DHT22;11402;51.374;6.594;2024-01-06T14:10:12;2.90;99.90
22471;DHT22;11402;51.374;6.594;2024-01-06T14:12:41;2.80;99.90
22471;DHT22;11402;51.374;6.594;2024-01-06T14:15:07;2.80;99.90
22471;DHT22;11402;51.374;6.594;2024-01-06T14:17:33;3.00;99.90
22471;DHT22;11402;51.374;6.594;2024-01-06T14:19:59;3.00;99.90
22471;DHT22;11402;51.374;6.594;2024-01-06T14:22:26;3.00;99.90
22471;DHT22;11402;51.374;6.594;2024-01-06T14:24:51;2.90;99.90
22471;DHT22;11402;51.374;6.594;2024-01-06T14:27:17;2.80;99.90
22471;DHT22;11402;51.374;6.594;2024-01-06T14:29:43;2.80;99.90
22471;DHT22;11402;51.374;6.594;2024-01-06T14:32:08;2.80;99.90
22471;DHT22;11402;51.374;6.594;2024-01-06T14:34:34;2.90;99.90
22471;DHT22;11402;51.374;6.594;2024-01-06T14:37:00;3.00;99.90
22471;DHT22;11402;51.374;6.594;2024-01-06T14:39:26;2.90;99.90
22471;DHT22;11402;51.374;6.594;2024-01-06T14:41:51;2.90;99.90
22471;DHT22;11402;51.374;6.594;2024-01-06T14:44:17;2.90;99.90
22471;DHT22;11402;51.374;6.594;2024-01-06T14:46:46;2.90;99.90
22471;DHT22;11402;51.374;6.594;2024-01-06T14:49:11;2.90;99.90
22471;DHT22;11402;51.374;6.594;2024-01-06T14:51:37;2.90;99.90
22471;DHT22;11402;51.374;6.594;2024-01-06T14:54:03;3.10;99.90
22471;DHT22;11402;51.374;6.594;2024-01-06T14:56:29;2.90;99.90
22471;DHT22;11402;51.374;6.594;2024-01-06T14:58:55;3.00;99.90
22471;DHT22;11402;51.374;6.594;2024-01-06T15:01:21;3.00;99.90
22471;DHT22;11402;51.374;6.594;2024-01-06T15:03:47;2.90;99.90
22471;DHT22;11402;51.374;6.594;2024-01-06T15:06:13;2.90;99.90
22471;DHT22;11402;51.374;6.594;2024-01-06T15:08:38;3.00;99.90
22471;DHT22;11402;51.374;6.594;2024-01-06T15:11:04;3.00;99.90
22471;DHT22;11402;51.374;6.594;2024-01-06T15:13:30;3.10;99.90
22471;DHT22;11402;51.374;6.594;2024-01-06T15:15:56;2.90;99.90
22471;DHT22;11402;51.374;6.594;2024-01-06T15:18:22;3.00;99.90
22471;DHT22;11402;51.374;6.594;2024-01-06T15:20:48;3.00;99.90
22471;DHT22;11402;51.374;6.594;2024-01-06T15:23:14;3.10;99.90
22471;DHT22;11402;51.374;6.594;2024-01-06T15:25:40;3.00;99.90
22471;DHT22;11402;51.374;6.594;2024-01-06T15:28:07;3.00;99.90
22471;DHT22;11402;51.374;6.594;2024-01-06T15:30:33;3.00;99.90
22471;DHT22;11402;51.374;6.594;2024-01-06T15:32:59;3.10;99.90
22471;DHT22;11402;51.374;6.594;2024-01-06T15:35:24;3.00;99.90
22471;DHT22;11402;51.374;6.594;2024-01-06T15:37:50;3.10;99.90
22471;DHT22;11402;51.374;6.594;2024-01-06T15:40:15;2.90;99.90
22471;DHT22;11402;51.374;6.594;2024-01-06T15:42:42;2.70;99.90
22471;DHT22;11402;51.374;6.594;2024-01-06T15:45:08;2.80;99.90
22471;DHT22;11402;51.374;6.594;2024-01-06T15:47:35;2.80;99.90
22471;DHT22;11402;51.374;6.594;2024-01-06T15:50:00;2.80;99.90
22471;DHT22;11402;51.374;6.594;2024-01-06T15:52:26;2.80;99.90
22471;DHT22;11402;51.374;6.594;2024-01-06T15:54:51;2.80;99.90
22471;DHT22;11402;51.374;6.594;2024-01-06T15:57:18;2.70;99.90
22471;DHT22;11402;51.374;6.594;2024-01-06T15:59:44;2.80;99.90
22471;DHT22;11402;51.374;6.594;2024-01-06T16:02:10;2.80;99.90
22471;DHT22;11402;51.374;6.594;2024-01-06T16:04:35;2.70;99.90
22471;DHT22;11402;51.374;6.594;2024-01-06T16:07:02;2.60;99.90
22471;DHT22;11402;51.374;6.594;2024-01-06T16:09:31;2.60;99.90
22471;DHT22;11402;51.374;6.594;2024-01-06T16:11:56;2.60;99.90
22471;DHT22;11402;51.374;6.594;2024-01-06T16:14:23;2.60;99.90
22471;DHT22;11402;51.374;6.594;2024-01-06T16:16:51;2.60;99.90
22471;DHT22;11402;51.374;6.594;2024-01-06T16:19:17;2.60;99.90
22471;DHT22;11402;51.374;6.594;2024-01-06T16:21:43;2.70;99.90
22471;DHT22;11402;51.374;6.594;2024-01-06T16:24:09;2.70;99.90
22471;DHT22;11402;51.374;6.594;2024-01-06T16:26:34;2.70;99.90
22471;DHT22;11402;51.374;6.594;2024-01-06T16:29:01;2.70;99.90
22471;DHT22;11402;51.374;6.594;2024-01-06T16:31:26;2.70;99.90
22471;DHT22;11402;51.374;6.594;2024-01-06T16:33:52;2.60;99.90
22471;DHT22;11402;51.374;6.594;2024-01-06T16:36:18;2.70;99.90
22471;DHT22;11402;51.374;6.594;2024-01-06T16:38:43;2.80;99.90
22471;DHT22;11402;51.374;6.594;2024-01-06T16:41:09;2.90;99.90
22471;DHT22;11402;51.374;6.594;2024-01-06T16:43:35;2.70;99.90
22471;DHT22;11402;51.374;6.594;2024-01-06T16:46:04;2.50;99.90
22471;DHT22;11402;51.374;6.594;2024-01-06T16:48:30;2.50;99.90
22471;DHT22;11402;51.374;6.594;2024-01-06T16:50:57;2.50;99.90
22471;DHT22;11402;51.374;6.594;2024-01-06T16:53:22;2.50;99.90
22471;DHT22;11402;51.374;6.594;2024-01-06T16:55:48;2.60;99.90
22471;DHT22;11402;51.374;6.594;2024-01-06T16:58:13;2.70;99.90
22471;DHT22;11402;51.374;6.594;2024-01-06T17:00:39;2.50;99.90
22471;DHT22;11402;51.374;6.594;2024-01-06T17:03:05;2.40;99.90